createdAt,value
2023-05-10T00:04:18.291Z,59.67
2023-05-10T00:09:21.398Z,58.49
2023-05-10T00:14:24.288Z,59.47
2023-05-10T00:19:28.564Z,59.24
2023-05-10T00:24:31.542Z,60.60
2023-05-10T00:29:34.886Z,59.87
2023-05-10T00:34:39.192Z,59.59
2023-05-10T00:39:42.363Z,60.38
2023-05-10T00:44:45.270Z,60.71
2023-05-10T00:49:49.898Z,61.36
2023-05-10T00:54:54.588Z,61.51
2023-05-10T00:59:57.838Z,60.79
2023-05-10T01:05:02.404Z,61.82
2023-05-10T01:10:06.691Z,61.56
2023-05-10T01:15:11.918Z,61.91
2023-05-10T01:20:17.869Z,61.83
2023-05-10T01:25:53.557Z,61.72
2023-05-10T01:31:10.704Z,61.84
2023-05-10T01:36:27.041Z,62.13
2023-05-10T01:41:38.362Z,61.77
2023-05-10T01:46:42.244Z,63.52
2023-05-10T01:51:49.200Z,63.44
2023-05-10T01:56:58.144Z,63.35
2023-05-10T02:02:02.822Z,63.95
2023-05-10T02:07:08.448Z,64.01
2023-05-10T02:12:14.617Z,63.70
2023-05-10T02:17:18.450Z,64.06
2023-05-10T02:22:23.701Z,66.18
2023-05-10T02:27:29.379Z,68.00
2023-05-10T02:32:32.727Z,68.30
2023-05-10T02:37:38.768Z,69.77
2023-05-10T02:42:44.507Z,69.58
2023-05-10T02:47:47.550Z,69.95
2023-05-10T02:52:53.886Z,70.42
2023-05-10T02:58:00.545Z,69.60
2023-05-10T03:03:03.596Z,70.49
2023-05-10T03:08:08.211Z,71.47
2023-05-10T03:13:18.660Z,72.15
2023-05-10T03:18:25.362Z,72.79
2023-05-10T03:23:36.879Z,72.11
2023-05-10T03:28:41.775Z,71.61
2023-05-10T03:33:49.334Z,69.69
2023-05-10T03:38:56.429Z,68.44
2023-05-10T03:43:59.335Z,68.33
2023-05-10T03:49:02.324Z,68.51
2023-05-10T03:54:06.822Z,69.04
2023-05-10T03:59:10.080Z,68.07
2023-05-10T04:04:13.357Z,68.59
2023-05-10T04:09:18.210Z,69.17
2023-05-10T04:14:21.120Z,68.36
2023-05-10T04:19:24.349Z,64.15
2023-05-10T04:24:28.681Z,59.34
2023-05-10T04:29:31.993Z,56.37
2023-05-10T04:34:35.347Z,53.84
2023-05-10T04:39:42.031Z,51.78
2023-05-10T04:44:45.247Z,50.34
2023-05-10T04:49:48.148Z,49.33
2023-05-10T04:54:52.427Z,50.85
2023-05-10T04:59:55.324Z,51.15
2023-05-10T05:04:58.796Z,48.86
2023-05-10T05:10:03.075Z,48.78
2023-05-10T05:15:09.044Z,49.31
2023-05-10T05:20:14.145Z,51.37
2023-05-10T05:25:19.063Z,50.02
2023-05-10T05:30:22.733Z,48.58
2023-05-10T05:35:25.984Z,49.18
2023-05-10T05:40:30.239Z,50.19
2023-05-10T05:45:33.211Z,49.50
2023-05-10T05:50:36.111Z,49.04
2023-05-10T05:55:40.417Z,47.05
2023-05-10T06:00:43.358Z,45.90
2023-05-10T06:05:46.216Z,48.06
2023-05-10T06:10:50.555Z,47.07
2023-05-10T06:15:53.455Z,47.01
2023-05-10T06:20:56.317Z,46.03
2023-05-10T06:26:00.594Z,44.95
2023-05-10T06:31:03.496Z,45.19
2023-05-10T06:36:06.976Z,44.59
2023-05-10T06:41:11.311Z,45.02
2023-05-10T06:46:14.179Z,45.51
2023-05-10T06:51:17.105Z,43.78
2023-05-10T06:56:22.452Z,44.45
2023-05-10T07:01:25.634Z,43.63
2023-05-10T07:06:33.379Z,42.69
2023-05-10T07:11:38.559Z,42.60
2023-05-10T07:16:41.763Z,43.08
2023-05-10T07:21:44.719Z,41.92
2023-05-10T07:26:48.964Z,41.86
2023-05-10T07:31:51.872Z,42.15
2023-05-10T07:36:54.976Z,41.00
2023-05-10T07:41:59.293Z,40.76
2023-05-10T07:47:02.209Z,38.86
2023-05-10T07:52:05.519Z,41.59
2023-05-10T07:57:09.803Z,41.25
2023-05-10T08:02:12.764Z,40.75
2023-05-10T08:07:15.755Z,40.38
2023-05-10T08:12:19.983Z,39.22
2023-05-10T08:17:24.698Z,40.45
2023-05-10T08:22:27.719Z,41.18
2023-05-10T08:27:31.937Z,41.63
2023-05-10T08:32:35.995Z,41.66
2023-05-10T08:37:39.009Z,41.30
2023-05-10T08:42:49.561Z,41.13
2023-05-10T08:47:54.491Z,40.20
2023-05-10T08:53:02.079Z,42.06
2023-05-10T08:58:06.669Z,41.33
2023-05-10T09:03:09.594Z,40.17
2023-05-10T09:08:13.944Z,42.60
2023-05-10T09:13:19.547Z,41.19
2023-05-10T09:18:22.556Z,40.95
2023-05-10T09:23:32.367Z,40.27
2023-05-10T09:28:51.860Z,39.80
2023-05-10T09:33:55.769Z,41.29
2023-05-10T09:38:59.703Z,42.20
2023-05-10T09:44:03.918Z,41.32
2023-05-10T09:49:07.791Z,40.06
2023-05-10T09:54:12.125Z,40.51
2023-05-10T09:59:16.389Z,40.44
2023-05-10T10:04:19.605Z,41.44
2023-05-10T10:09:22.643Z,42.26
2023-05-10T10:14:27.358Z,42.07
2023-05-10T10:19:30.490Z,42.19
2023-05-10T10:24:33.618Z,42.43
2023-05-10T10:29:46.894Z,42.94
2023-05-10T10:34:50.366Z,41.03
2023-05-10T10:39:53.326Z,41.85
2023-05-10T10:45:14.764Z,41.21
2023-05-10T10:50:18.103Z,42.15
2023-05-10T10:55:23.494Z,42.22
2023-05-10T11:00:29.980Z,41.41
2023-05-10T11:05:42.837Z,41.31
2023-05-10T11:11:04.601Z,43.04
2023-05-10T11:16:24.613Z,42.35
2023-05-10T11:21:28.065Z,42.84
2023-05-10T11:26:34.395Z,43.00
2023-05-10T11:31:44.784Z,43.76
2023-05-10T11:36:54.798Z,43.50
2023-05-10T11:41:58.302Z,42.06
2023-05-10T11:47:03.041Z,43.15
2023-05-10T11:52:07.224Z,41.68
2023-05-10T11:57:10.146Z,42.62
2023-05-10T12:02:14.820Z,42.60
2023-05-10T12:07:18.136Z,42.21
2023-05-10T12:12:20.992Z,41.69
2023-05-10T12:17:29.681Z,42.88
2023-05-10T12:22:35.973Z,42.87
2023-05-10T12:27:39.030Z,43.57
2023-05-10T12:32:44.110Z,42.85
2023-05-10T12:37:46.991Z,41.82
2023-05-10T12:42:50.039Z,42.00
2023-05-10T12:47:54.517Z,42.43
2023-05-10T12:52:57.442Z,40.57
2023-05-10T12:58:00.457Z,41.26
2023-05-10T13:03:04.825Z,41.39
2023-05-10T13:08:07.828Z,40.24
2023-05-10T13:13:10.915Z,39.23
2023-05-10T13:18:15.496Z,39.90
2023-05-10T13:23:18.595Z,40.71
2023-05-10T13:28:21.441Z,38.75
2023-05-10T13:33:25.827Z,41.99
2023-05-10T13:38:28.689Z,42.24
2023-05-10T13:43:31.676Z,40.24
2023-05-10T13:48:39.183Z,39.36
2023-05-10T13:53:42.499Z,38.68
2023-05-10T13:58:45.430Z,39.67
2023-05-10T14:03:49.807Z,39.61
2023-05-10T14:08:52.975Z,38.88
2023-05-10T14:13:55.890Z,44.59
2023-05-10T14:19:00.262Z,49.86
2023-05-10T14:24:03.236Z,53.84
2023-05-10T14:29:06.117Z,55.91
2023-05-10T14:34:10.390Z,53.44
2023-05-10T14:39:13.788Z,51.93
2023-05-10T14:44:17.350Z,54.93
2023-05-10T14:49:23.655Z,54.50
2023-05-10T14:54:26.958Z,54.54
2023-05-10T14:59:29.896Z,56.33
2023-05-10T15:04:34.798Z,55.65
2023-05-10T15:09:38.264Z,55.63
2023-05-10T15:14:41.144Z,52.99
2023-05-10T15:19:45.451Z,52.50
2023-05-10T15:24:48.370Z,55.53
2023-05-10T15:29:51.442Z,54.74
2023-05-10T15:34:55.764Z,55.95
2023-05-10T15:40:04.206Z,55.74
2023-05-10T15:45:08.158Z,56.11
2023-05-10T15:50:13.473Z,55.95
2023-05-10T15:55:17.173Z,59.48
2023-05-10T16:00:20.675Z,62.78
2023-05-10T16:05:24.903Z,60.99
2023-05-10T16:10:28.107Z,61.57
2023-05-10T16:15:31.002Z,61.44
2023-05-10T16:20:35.385Z,58.54
2023-05-10T16:25:38.371Z,58.37
2023-05-10T16:30:41.707Z,63.47
2023-05-10T16:35:46.332Z,62.98
2023-05-10T16:40:49.318Z,61.21
2023-05-10T16:45:52.262Z,61.99
2023-05-10T16:50:57.837Z,65.21
2023-05-10T16:56:00.867Z,65.67
2023-05-10T17:01:04.229Z,65.61
2023-05-10T17:06:09.060Z,66.65
2023-05-10T17:11:12.096Z,66.27
2023-05-10T17:16:15.127Z,64.30
2023-05-10T17:21:19.490Z,65.39
2023-05-10T17:26:22.508Z,66.10
2023-05-10T17:31:25.590Z,66.07
2023-05-10T17:36:29.858Z,65.46
2023-05-10T17:41:32.852Z,71.61
2023-05-10T17:46:36.414Z,71.86
2023-05-10T17:51:41.452Z,69.77
2023-05-10T17:56:44.602Z,70.70
2023-05-10T18:01:47.637Z,70.33
2023-05-10T18:06:51.992Z,70.25
2023-05-10T18:11:54.982Z,70.88
2023-05-10T18:16:57.997Z,71.18
2023-05-10T18:22:02.356Z,71.12
2023-05-10T18:27:05.855Z,70.81
2023-05-10T18:32:08.973Z,70.33
2023-05-10T18:37:13.684Z,70.62
2023-05-10T18:42:16.944Z,70.46
2023-05-10T18:47:19.952Z,70.67
2023-05-10T18:52:24.229Z,72.10
2023-05-10T18:57:27.238Z,71.17
2023-05-10T19:02:30.150Z,71.54
2023-05-10T19:07:34.770Z,72.04
2023-05-10T19:12:37.711Z,72.95
2023-05-10T19:17:42.116Z,73.43
2023-05-10T19:23:02.054Z,73.76
2023-05-10T19:28:11.421Z,73.67
2023-05-10T19:33:14.528Z,74.35
2023-05-10T19:38:21.091Z,74.27
2023-05-10T19:43:24.574Z,74.99
2023-05-10T19:48:28.388Z,75.10
2023-05-10T19:53:33.290Z,76.14
2023-05-10T19:58:36.415Z,76.23
2023-05-10T20:03:39.376Z,77.11
2023-05-10T20:08:43.661Z,77.26
2023-05-10T20:13:46.608Z,78.60
2023-05-10T20:18:49.620Z,79.03
2023-05-10T20:23:53.892Z,79.32
2023-05-10T20:28:56.838Z,79.64
2023-05-10T20:33:59.824Z,79.76
2023-05-10T20:39:04.130Z,81.15
2023-05-10T20:44:07.147Z,82.20
2023-05-10T20:49:10.145Z,83.24
2023-05-10T20:54:14.476Z,83.60
2023-05-10T20:59:17.809Z,84.14
2023-05-10T21:04:21.281Z,85.09
2023-05-10T21:09:25.574Z,84.99
2023-05-10T21:14:28.433Z,84.82
2023-05-10T21:19:31.343Z,84.91
2023-05-10T21:24:35.835Z,84.93
2023-05-10T21:29:39.187Z,85.51
2023-05-10T21:34:42.080Z,86.95
2023-05-10T21:39:46.358Z,85.98
2023-05-10T21:44:49.312Z,86.45
2023-05-10T21:49:52.355Z,86.88
2023-05-10T21:54:56.627Z,86.91
2023-05-10T21:59:59.645Z,87.09
2023-05-10T22:05:02.690Z,87.35
2023-05-10T22:10:08.330Z,87.84
2023-05-10T22:15:12.056Z,87.53
2023-05-10T22:20:15.424Z,87.77
2023-05-10T22:25:19.886Z,87.34
2023-05-10T22:30:22.906Z,89.07
2023-05-10T22:35:26.052Z,88.88
2023-05-10T22:40:30.279Z,88.85
2023-05-10T22:45:33.119Z,88.35
2023-05-10T22:50:36.882Z,89.72
2023-05-10T22:55:41.372Z,90.05
2023-05-10T23:00:44.266Z,89.47
2023-05-10T23:05:47.259Z,89.23
2023-05-10T23:10:51.719Z,89.34
2023-05-10T23:15:54.613Z,89.74
2023-05-10T23:20:57.528Z,90.52
2023-05-10T23:26:01.782Z,90.32
2023-05-10T23:31:04.772Z,91.39
2023-05-10T23:36:08.166Z,91.55
2023-05-10T23:41:12.535Z,90.69
2023-05-10T23:46:15.584Z,91.23
2023-05-10T23:51:18.471Z,91.12
2023-05-10T23:56:23.131Z,91.93
